Time;durP1;ratioP1;P1;durP2;ratioP2;P2;SDS_P1;SDS_P2;PMS_P1;PMS_P2;Temp;Humidity;BMP_temperature;BMP_pressure;BME280_temperature;BME280_humidity;BME280_pressure;Samples;Min_cycle;Max_cycle;Signal;HPM_P1;HPM_P2
2022/03/12 00:00:10;;;;;;;10.50;6.32;;;;;;;8.79;29.35;100732.97;670741;29;1502;-79
2022/03/12 00:00:37;;;;;;;9.63;5.82;;;;;;;8.83;29.48;100727.78;671255;29;1843;-78
2022/03/12 00:00:59;;;;;;;8.63;6.00;;;;;;;8.80;29.56;100727.75;667693;29;4379;-78
2022/03/12 00:01:21;;;;;;;8.70;6.30;;;;;;;8.80;29.32;100730.34;674364;29;1595;-78
2022/03/12 00:01:42;;;;;;;8.50;6.03;;;;;;;8.76;28.97;100735.56;677847;29;1576;-79
2022/03/12 00:02:03;;;;;;;9.10;5.88;;;;;;;8.72;29.37;100734.66;675224;29;1158;-79
2022/03/12 00:02:23;;;;;;;10.07;5.82;;;;;;;8.68;30.12;100745.94;678491;29;1516;-79
2022/03/12 00:02:44;;;;;;;8.63;5.70;;;;;;;8.64;30.36;100738.97;677925;29;1605;-79
2022/03/12 00:03:05;;;;;;;8.30;5.72;;;;;;;8.60;30.41;100740.72;671294;29;1623;-78
2022/03/12 00:03:25;;;;;;;8.93;6.20;;;;;;;8.57;30.50;100745.91;664853;29;1722;-79
2022/03/12 00:03:47;;;;;;;10.13;6.27;;;;;;;8.55;30.08;100770.22;672547;29;977;-79
2022/03/12 00:04:08;;;;;;;8.18;5.90;;;;;;;8.50;31.28;100737.19;668965;29;4491;-79
2022/03/12 00:04:30;;;;;;;8.20;5.80;;;;;;;8.56;29.93;100744.16;669775;29;940;-79
2022/03/12 00:04:50;;;;;;;8.45;5.95;;;;;;;8.61;30.13;100744.19;670266;29;1383;-79
2022/03/12 00:05:11;;;;;;;8.93;6.33;;;;;;;8.68;30.31;100736.41;670161;29;2866;-79
2022/03/12 00:05:33;;;;;;;8.85;6.43;;;;;;;8.67;30.64;100733.78;669869;29;1544;-79
2022/03/12 00:05:54;;;;;;;9.57;6.35;;;;;;;8.75;29.54;100736.41;675847;29;1559;-79
2022/03/12 00:06:15;;;;;;;9.05;6.07;;;;;;;8.82;29.57;100749.50;676029;29;1237;-78
2022/03/12 00:06:36;;;;;;;9.82;6.38;;;;;;;8.77;29.61;100739.91;675281;29;1688;-79
2022/03/12 00:06:58;;;;;;;10.80;6.40;;;;;;;8.80;28.92;100751.19;673382;29;4336;-79
2022/03/12 00:07:19;;;;;;;8.75;6.18;;;;;;;8.72;29.65;100758.13;674078;29;1635;-78
2022/03/12 00:07:42;;;;;;;8.67;6.07;;;;;;;8.72;30.09;100742.47;672573;29;1723;-79
2022/03/12 00:08:04;;;;;;;10.38;5.90;;;;;;;8.67;29.85;100747.69;673761;29;1293;-79
2022/03/12 00:08:41;;;;;;;8.25;5.88;;;;;;;8.73;29.82;100744.22;675788;29;952;-79
2022/03/12 00:09:03;;;;;;;8.18;6.38;;;;;;;8.74;29.37;100773.78;673964;29;1697;-79
2022/03/12 00:09:23;;;;;;;9.32;6.00;;;;;;;8.75;30.66;100765.97;673140;29;1584;-79
2022/03/12 00:09:44;;;;;;;9.60;5.93;;;;;;;8.71;30.11;100743.38;675753;29;1476;-78
2022/03/12 00:10:05;;;;;;;9.80;6.07;;;;;;;8.71;29.12;100740.75;675886;29;4308;-79
2022/03/12 00:10:32;;;;;;;11.23;5.93;;;;;;;8.79;28.77;100746.00;676384;29;879;-79
2022/03/12 00:10:53;;;;;;;10.27;6.13;;;;;;;8.79;29.19;100756.41;675619;29;1643;-79
2022/03/12 00:11:16;;;;;;;9.52;6.30;;;;;;;8.70;29.58;100752.03;674911;29;1297;-78
2022/03/12 00:11:46;;;;;;;9.73;6.20;;;;;;;8.74;29.68;100738.16;675651;29;1746;-79
2022/03/12 00:12:07;;;;;;;9.68;6.05;;;;;;;8.72;30.28;100752.03;669626;29;1638;-78
2022/03/12 00:12:34;;;;;;;8.90;5.93;;;;;;;8.76;29.53;100770.31;670349;29;1723;-78
2022/03/12 00:12:55;;;;;;;8.90;6.30;;;;;;;8.64;29.89;100759.81;674161;29;4531;-79
2022/03/12 00:13:21;;;;;;;9.93;6.38;;;;;;;8.71;29.56;100738.16;673071;29;1305;-79
2022/03/12 00:13:43;;;;;;;9.48;6.38;;;;;;;8.76;29.15;100748.59;674383;29;1275;-79
2022/03/12 00:14:06;;;;;;;8.10;5.90;;;;;;;8.78;29.03;100739.06;676397;29;1743;-79
2022/03/12 00:14:28;;;;;;;8.43;6.03;;;;;;;8.76;29.10;100744.25;673757;29;1118;-79
2022/03/12 00:14:49;;;;;;;9.88;6.47;;;;;;;8.73;30.30;100735.56;673498;29;1913;-78
2022/03/12 00:15:14;;;;;;;16.65;6.60;;;;;;;8.72;29.74;100739.88;671968;29;1445;-78
2022/03/12 00:15:37;;;;;;;9.13;5.93;;;;;;;8.68;30.27;100754.66;676178;29;1295;-78
2022/03/12 00:15:59;;;;;;;8.45;6.28;;;;;;;8.77;29.29;100756.41;676386;29;4328;-80
2022/03/12 00:16:25;;;;;;;8.93;6.47;;;;;;;8.74;29.96;100751.19;675030;29;1466;-79
2022/03/12 00:16:47;;;;;;;9.60;6.30;;;;;;;8.75;30.29;100746.84;672272;29;1218;-79
2022/03/12 00:17:07;;;;;;;9.98;6.20;;;;;;;8.80;29.62;100734.72;673898;29;1365;-79
2022/03/12 00:17:29;;;;;;;9.27;6.18;;;;;;;8.79;30.07;100746.00;671899;29;1825;-78
2022/03/12 00:17:50;;;;;;;8.93;5.90;;;;;;;8.79;29.27;100743.38;670644;29;1316;-78
2022/03/12 00:18:11;;;;;;;9.23;6.00;;;;;;;8.84;29.35;100736.47;675379;29;1662;-78
2022/03/12 00:18:34;;;;;;;10.35;6.10;;;;;;;8.80;29.50;100753.81;675297;29;1607;-79
2022/03/12 00:18:58;;;;;;;8.88;5.90;;;;;;;8.73;29.74;100741.63;666024;29;4368;-79
2022/03/12 00:19:23;;;;;;;9.02;6.25;;;;;;;8.72;30.25;100736.41;670827;29;1836;-79
2022/03/12 00:19:44;;;;;;;8.47;6.17;;;;;;;8.71;29.75;100740.75;672629;29;1278;-79
2022/03/12 00:20:12;;;;;;;8.50;5.80;;;;;;;8.66;30.30;100732.91;673749;29;1286;-80
2022/03/12 00:20:33;;;;;;;9.63;6.50;;;;;;;8.71;29.77;100735.56;672061;29;1291;-79
2022/03/12 00:20:53;;;;;;;8.50;6.05;;;;;;;8.76;29.15;100740.78;670904;29;1031;-79
2022/03/12 00:21:14;;;;;;;8.50;5.50;;;;;;;8.78;28.96;100742.53;669080;29;1271;-78
2022/03/12 00:21:35;;;;;;;9.07;5.90;;;;;;;8.76;30.10;100741.63;672869;29;1179;-79
2022/03/12 00:21:56;;;;;;;8.40;5.90;;;;;;;8.67;31.34;100744.22;672705;29;4540;-79
2022/03/12 00:22:17;;;;;;;8.35;5.90;;;;;;;8.64;30.39;100754.59;673693;29;1209;-79
2022/03/12 00:22:47;;;;;;;9.18;5.55;;;;;;;8.62;29.78;100743.31;672327;29;1169;-79
2022/03/12 00:23:10;;;;;;;8.82;5.68;;;;;;;8.68;29.23;100751.16;672699;29;1175;-78
2022/03/12 00:23:30;;;;;;;10.10;6.15;;;;;;;8.71;29.43;100745.97;672964;29;1263;-79
2022/03/12 00:23:56;;;;;;;9.00;6.13;;;;;;;8.73;30.06;100739.03;677161;29;1553;-79
2022/03/12 00:24:17;;;;;;;9.10;6.35;;;;;;;8.71;29.54;100743.38;678574;29;1244;-79
2022/03/12 00:24:40;;;;;;;9.30;6.20;;;;;;;8.65;29.89;100744.22;681236;28;892;-78
2022/03/12 00:25:01;;;;;;;9.30;6.40;;;;;;;8.63;29.60;100739.84;679343;29;4350;-79
2022/03/12 00:25:24;;;;;;;10.27;6.30;;;;;;;8.66;29.60;100742.47;674197;29;1533;-78
2022/03/12 00:25:47;;;;;;;9.93;6.20;;;;;;;8.69;29.79;100739.88;674984;29;1115;-79
2022/03/12 00:26:07;;;;;;;9.52;6.30;;;;;;;8.67;29.54;100733.78;674326;29;1443;-78
2022/03/12 00:26:31;;;;;;;9.30;6.22;;;;;;;8.75;29.01;100747.72;673676;29;1282;-78
2022/03/12 00:26:51;;;;;;;8.98;6.13;;;;;;;8.67;30.43;100752.03;676108;29;1277;-79
2022/03/12 00:27:13;;;;;;;9.68;6.45;;;;;;;8.73;29.42;100748.59;678410;29;1585;-78
2022/03/12 00:27:34;;;;;;;9.48;5.93;;;;;;;8.73;29.50;100738.16;674227;29;1256;-78
2022/03/12 00:27:54;;;;;;;9.57;6.43;;;;;;;8.68;29.77;100740.72;666760;29;4575;-78
2022/03/12 00:28:18;;;;;;;8.90;6.50;;;;;;;8.63;30.54;100768.53;667474;29;1156;-79
2022/03/12 00:28:43;;;;;;;9.35;6.65;;;;;;;8.59;30.16;100735.50;668524;29;1394;-78
2022/03/12 00:29:04;;;;;;;8.57;6.18;;;;;;;8.55;29.90;100731.13;666800;29;1494;-78
2022/03/12 00:29:25;;;;;;;8.60;6.10;;;;;;;8.56;30.32;100741.56;668091;29;1504;-79
2022/03/12 00:29:48;;;;;;;8.95;6.22;;;;;;;8.62;30.78;100740.72;671466;29;1080;-78
2022/03/12 00:30:10;;;;;;;9.48;6.50;;;;;;;8.64;30.02;100741.56;672854;29;1493;-79
2022/03/12 00:30:34;;;;;;;9.30;6.40;;;;;;;8.68;29.57;100739.00;672668;29;1424;-78
2022/03/12 00:30:55;;;;;;;9.80;6.22;;;;;;;8.73;29.99;100752.06;671181;29;4386;-79
2022/03/12 00:31:16;;;;;;;9.18;5.80;;;;;;;8.70;29.68;100744.22;669567;29;1070;-78
2022/03/12 00:31:36;;;;;;;8.75;5.57;;;;;;;8.72;29.84;100752.03;672920;29;1306;-79
2022/03/12 00:31:57;;;;;;;9.52;6.07;;;;;;;8.72;30.08;100741.63;673233;29;1543;-78
2022/03/12 00:32:18;;;;;;;9.60;6.20;;;;;;;8.68;30.35;100739.00;668790;29;887;-79
2022/03/12 00:32:41;;;;;;;8.70;5.95;;;;;;;8.71;29.83;100751.19;669820;29;1443;-78
2022/03/12 00:33:02;;;;;;;9.65;6.15;;;;;;;8.68;30.00;100740.72;671309;29;820;-78
2022/03/12 00:33:24;;;;;;;11.07;6.10;;;;;;;8.74;29.38;100748.59;673902;29;1309;-79
2022/03/12 00:33:44;;;;;;;8.90;5.97;;;;;;;8.78;29.17;100734.69;673309;29;1419;-79
2022/03/12 00:34:05;;;;;;;8.70;5.90;;;;;;;8.75;29.44;100742.53;669308;29;4285;-79
2022/03/12 00:34:25;;;;;;;8.60;6.20;;;;;;;8.74;30.36;100748.59;670351;29;1349;-79
2022/03/12 00:34:46;;;;;;;9.65;6.20;;;;;;;8.73;29.65;100746.84;671940;29;1135;-79
2022/03/12 00:35:09;;;;;;;11.47;6.70;;;;;;;8.72;30.30;100742.47;672052;29;1982;-79
2022/03/12 00:35:30;;;;;;;10.27;6.60;;;;;;;8.72;30.37;100747.69;671862;29;1438;-81
2022/03/12 00:35:53;;;;;;;10.02;6.13;;;;;;;8.70;30.35;100749.44;673324;29;1520;-79
2022/03/12 00:36:15;;;;;;;9.70;6.10;;;;;;;8.73;29.98;100764.22;673572;29;1562;-79
2022/03/12 00:36:36;;;;;;;8.85;6.28;;;;;;;8.72;29.60;100746.84;674299;29;977;-78
2022/03/12 00:36:56;;;;;;;8.45;6.05;;;;;;;8.73;29.72;100748.59;672612;29;4343;-79
2022/03/12 00:37:17;;;;;;;8.00;5.93;;;;;;;8.73;29.60;100751.19;674240;29;1307;-80
2022/03/12 00:37:39;;;;;;;9.60;6.32;;;;;;;8.67;30.18;100737.25;674138;29;1367;-79
2022/03/12 00:37:59;;;;;;;10.37;6.40;;;;;;;8.60;30.33;100735.50;673985;29;1353;-79
2022/03/12 00:38:24;;;;;;;9.70;6.50;;;;;;;8.62;30.02;100754.59;673372;29;1315;-79
2022/03/12 00:38:45;;;;;;;10.25;6.18;;;;;;;8.57;30.62;100743.31;669000;29;2018;-79
2022/03/12 00:39:08;;;;;;;8.75;6.18;;;;;;;8.57;29.89;100742.41;672239;29;4425;-79
2022/03/12 00:39:29;;;;;;;9.95;6.40;;;;;;;8.58;30.25;100736.34;671311;29;1503;-79
2022/03/12 00:39:52;;;;;;;10.70;6.30;;;;;;;8.56;30.29;100745.91;671836;29;1021;-78
2022/03/12 00:40:15;;;;;;;8.88;6.32;;;;;;;8.60;29.79;100745.03;670408;29;4855;-78
2022/03/12 00:40:39;;;;;;;11.13;5.80;;;;;;;8.60;30.01;100743.31;674387;29;1442;-79
2022/03/12 00:41:02;;;;;;;9.15;6.28;;;;;;;8.69;29.92;100737.25;673234;29;1457;-80
2022/03/12 00:41:23;;;;;;;9.45;6.70;;;;;;;8.68;30.49;100740.72;670763;29;1453;-79
2022/03/12 00:41:43;;;;;;;9.90;6.32;;;;;;;8.65;30.22;100740.72;673557;29;1423;-79
2022/03/12 00:42:04;;;;;;;9.75;6.18;;;;;;;8.62;29.97;100743.31;671769;29;941;-79
2022/03/12 00:42:25;;;;;;;9.67;6.30;;;;;;;8.60;30.45;100739.81;670491;29;1526;-79
2022/03/12 00:42:45;;;;;;;9.17;6.30;;;;;;;8.57;30.46;100742.41;670643;29;1270;-79
2022/03/12 00:43:06;;;;;;;9.90;6.10;;;;;;;8.56;30.42;100738.94;669288;29;4298;-80
2022/03/12 00:43:26;;;;;;;9.60;6.00;;;;;;;8.60;29.95;100745.91;676393;29;1434;-79
2022/03/12 00:43:46;;;;;;;10.02;6.13;;;;;;;8.62;29.99;100741.56;674381;29;1846;-78
2022/03/12 00:44:08;;;;;;;9.23;6.43;;;;;;;8.63;30.96;100739.84;675777;29;1801;-78
2022/03/12 00:44:29;;;;;;;8.55;6.30;;;;;;;8.63;30.21;100737.25;678147;29;1464;-79
2022/03/12 00:44:49;;;;;;;9.85;6.43;;;;;;;8.63;29.88;100745.06;675503;29;1393;-78
2022/03/12 00:45:10;;;;;;;11.10;6.30;;;;;;;8.59;30.65;100741.56;672658;29;961;-80
2022/03/12 00:45:33;;;;;;;9.50;6.40;;;;;;;8.60;30.53;100755.44;672162;29;893;-79
2022/03/12 00:45:54;;;;;;;9.73;5.55;;;;;;;8.67;30.52;100737.25;669659;29;4352;-79
2022/03/12 00:46:14;;;;;;;8.90;6.05;;;;;;;8.61;29.92;100762.41;674308;29;1031;-78
2022/03/12 00:46:35;;;;;;;10.40;6.13;;;;;;;8.66;29.88;100758.97;678237;29;1746;-78
2022/03/12 00:46:55;;;;;;;10.05;6.10;;;;;;;8.64;29.63;100750.28;675497;29;1124;-78
2022/03/12 00:47:16;;;;;;;8.73;6.03;;;;;;;8.63;30.00;100740.72;672686;29;1245;-79
2022/03/12 00:47:37;;;;;;;10.15;6.00;;;;;;;8.57;30.73;100765.88;668332;29;1479;-78
2022/03/12 00:47:58;;;;;;;10.77;6.10;;;;;;;8.58;29.63;100762.41;674998;29;1062;-79
2022/03/12 00:48:18;;;;;;;9.15;5.97;;;;;;;8.61;30.33;100744.19;672821;29;1198;-78
2022/03/12 00:48:39;;;;;;;8.40;6.10;;;;;;;8.64;29.65;100741.56;675181;29;832;-79
2022/03/12 00:49:00;;;;;;;8.93;5.75;;;;;;;8.56;30.62;100765.00;678014;29;4359;-79
2022/03/12 00:49:21;;;;;;;9.13;6.35;;;;;;;8.55;30.82;100746.78;677579;29;1308;-79
2022/03/12 00:49:44;;;;;;;8.87;6.40;;;;;;;8.51;31.58;100778.03;678160;29;1385;-79
2022/03/12 00:50:06;;;;;;;8.63;6.40;;;;;;;8.48;30.72;100749.31;678884;29;1044;-80
2022/03/12 00:50:26;;;;;;;8.77;6.00;;;;;;;8.48;30.78;100766.72;674370;29;1403;-79
2022/03/12 00:50:47;;;;;;;9.90;6.30;;;;;;;8.52;30.42;100766.72;672284;29;1502;-79
2022/03/12 00:51:09;;;;;;;8.65;6.10;;;;;;;8.63;30.49;100742.47;673602;29;976;-79
2022/03/12 00:51:30;;;;;;;9.25;6.50;;;;;;;8.65;30.05;100757.25;676106;29;972;-79
2022/03/12 00:51:51;;;;;;;9.32;6.55;;;;;;;8.66;30.03;100734.66;675187;29;1171;-79
2022/03/12 00:52:12;;;;;;;8.85;6.30;;;;;;;8.61;31.27;100745.06;669976;29;4612;-78
2022/03/12 00:52:32;;;;;;;8.13;6.07;;;;;;;8.55;30.72;100744.16;671963;29;1810;-79
2022/03/12 00:52:53;;;;;;;9.52;6.40;;;;;;;8.60;30.07;100742.44;672794;29;1729;-79
2022/03/12 00:53:16;;;;;;;9.05;6.38;;;;;;;8.56;30.56;100746.78;669963;29;1294;-79
2022/03/12 00:53:39;;;;;;;8.60;6.18;;;;;;;8.56;30.63;100766.75;668064;29;1099;-79
2022/03/12 00:54:02;;;;;;;9.90;6.35;;;;;;;8.56;30.02;100735.50;667372;29;1370;-79
2022/03/12 00:54:23;;;;;;;11.15;6.10;;;;;;;8.60;30.05;100777.19;667737;29;878;-78
2022/03/12 00:54:44;;;;;;;8.38;5.75;;;;;;;8.66;29.71;100758.97;669353;29;1426;-79
2022/03/12 00:55:05;;;;;;;8.93;5.72;;;;;;;8.71;30.07;100751.19;670116;29;4336;-81
2022/03/12 00:55:26;;;;;;;9.15;6.20;;;;;;;8.67;30.45;100747.69;666130;29;930;-78
2022/03/12 00:55:46;;;;;;;10.60;6.80;;;;;;;8.65;30.37;100741.63;665681;29;1454;-79
2022/03/12 00:56:09;;;;;;;9.80;6.57;;;;;;;8.63;30.73;100742.47;671870;29;1490;-79
2022/03/12 00:56:29;;;;;;;9.07;6.38;;;;;;;8.68;29.91;100746.84;665277;29;1016;-80
2022/03/12 00:56:50;;;;;;;8.67;6.30;;;;;;;8.61;30.76;100765.91;667498;29;1195;-79
2022/03/12 00:57:13;;;;;;;8.77;6.50;;;;;;;8.61;30.18;100738.97;672412;29;1519;-79
2022/03/12 00:57:34;;;;;;;9.13;6.63;;;;;;;8.61;30.67;100749.38;671757;29;1337;-79
2022/03/12 00:57:55;;;;;;;9.35;6.60;;;;;;;8.56;30.41;100741.56;669563;29;4394;-79
2022/03/12 00:58:19;;;;;;;8.82;6.32;;;;;;;8.50;30.73;100745.00;673852;29;1837;-79
2022/03/12 00:58:45;;;;;;;9.27;6.30;;;;;;;8.45;30.93;100749.31;673543;29;995;-78
2022/03/12 00:59:09;;;;;;;9.18;6.43;;;;;;;8.48;30.74;100744.13;671697;29;1206;-78
2022/03/12 00:59:34;;;;;;;10.15;6.70;;;;;;;8.47;30.63;100777.97;672229;29;1492;-79
2022/03/12 00:59:55;;;;;;;10.15;6.60;;;;;;;8.43;31.17;100745.81;669582;29;1786;-79
2022/03/12 01:00:19;;;;;;;9.90;6.60;;;;;;;8.46;30.49;100765.81;673686;29;1443;-78
2022/03/12 01:00:40;;;;;;;12.90;6.72;;;;;;;8.44;31.19;100744.94;671918;29;1257;-79
2022/03/12 01:01:01;;;;;;;11.30;6.25;;;;;;;8.42;31.24;100748.38;673957;29;4339;-79
2022/03/12 01:01:24;;;;;;;9.30;6.20;;;;;;;8.45;31.47;100754.53;673565;29;1781;-79
2022/03/12 01:01:46;;;;;;;8.85;6.22;;;;;;;8.48;30.60;100762.34;676521;29;1384;-79
2022/03/12 01:02:10;;;;;;;9.25;6.32;;;;;;;8.57;29.92;100750.25;672534;29;1287;-79
2022/03/12 01:02:30;;;;;;;9.10;6.07;;;;;;;8.59;30.52;100754.59;672474;29;1985;-79
2022/03/12 01:02:51;;;;;;;10.00;6.50;;;;;;;8.55;30.99;100771.06;669622;29;1606;-80
2022/03/12 01:03:12;;;;;;;9.63;6.60;;;;;;;8.55;30.63;100770.22;671880;29;1866;-79
2022/03/12 01:03:33;;;;;;;10.63;6.85;;;;;;;8.54;30.52;100747.63;678418;29;1323;-79
2022/03/12 01:03:53;;;;;;;10.73;6.63;;;;;;;8.55;30.85;100739.81;677198;29;4304;-80
2022/03/12 01:04:14;;;;;;;10.38;6.70;;;;;;;8.57;30.43;100747.63;677685;29;1247;-78
2022/03/12 01:04:35;;;;;;;10.37;6.63;;;;;;;8.58;30.34;100759.81;676878;29;944;-79
2022/03/12 01:04:59;;;;;;;9.55;6.38;;;;;;;8.65;30.07;100752.03;670960;29;1340;-79
2022/03/12 01:05:23;;;;;;;10.68;6.60;;;;;;;8.62;30.18;100745.94;672088;29;1505;-79
2022/03/12 01:05:50;;;;;;;9.25;6.53;;;;;;;8.58;30.88;100741.56;671525;29;1825;-79
2022/03/12 01:06:14;;;;;;;9.68;6.63;;;;;;;8.54;30.52;100753.69;675504;29;2119;-79
2022/03/12 01:06:34;;;;;;;12.27;6.32;;;;;;;8.64;30.83;100749.41;674331;29;1410;-78
2022/03/12 01:06:55;;;;;;;11.13;6.40;;;;;;;8.57;30.79;100747.63;675143;29;4341;-79
2022/03/12 01:07:16;;;;;;;9.95;6.60;;;;;;;8.57;30.50;100748.53;672676;29;1775;-79
2022/03/12 01:07:36;;;;;;;8.95;6.75;;;;;;;8.60;30.52;100742.44;671688;29;1893;-79
2022/03/12 01:07:56;;;;;;;9.77;6.87;;;;;;;8.62;30.52;100744.19;674837;29;1276;-80
2022/03/12 01:08:18;;;;;;;10.50;6.45;;;;;;;8.61;30.50;100754.59;675306;29;1684;-79
2022/03/12 01:08:39;;;;;;;10.57;6.43;;;;;;;8.58;30.26;100745.03;677216;29;1305;-79
2022/03/12 01:08:59;;;;;;;10.57;6.45;;;;;;;8.54;31.09;100758.03;674831;29;1153;-78
2022/03/12 01:09:20;;;;;;;10.27;6.50;;;;;;;8.54;30.82;100752.84;672680;29;1147;-79
2022/03/12 01:09:43;;;;;;;10.30;6.67;;;;;;;8.48;30.92;100751.06;672403;29;1494;-79
2022/03/12 01:10:03;;;;;;;9.93;6.60;;;;;;;8.44;30.60;100776.19;670869;29;4305;-78
2022/03/12 01:10:24;;;;;;;9.70;6.68;;;;;;;8.39;30.99;100748.38;677589;29;1683;-79
2022/03/12 01:10:45;;;;;;;9.45;6.25;;;;;;;8.38;31.52;100770.06;677103;29;1693;-80
2022/03/12 01:11:10;;;;;;;9.55;6.30;;;;;;;8.35;31.52;100744.91;676059;29;1645;-78
2022/03/12 01:11:32;;;;;;;10.20;6.60;;;;;;;8.33;32.90;100759.63;672853;29;1744;-79
2022/03/12 01:11:52;;;;;;;11.13;7.60;;;;;;;8.35;32.56;100757.94;674234;29;1207;-79
2022/03/12 01:12:13;;;;;;;10.33;6.90;;;;;;;8.34;32.10;100757.03;671336;29;1067;-79
2022/03/12 01:12:33;;;;;;;10.43;6.87;;;;;;;8.38;31.20;100751.84;673466;29;1577;-79
2022/03/12 01:12:54;;;;;;;11.00;6.60;;;;;;;8.38;31.71;100763.16;670326;29;4339;-79
2022/03/12 01:13:15;;;;;;;10.05;6.38;;;;;;;8.38;31.59;100751.84;672769;29;1629;-78
2022/03/12 01:13:36;;;;;;;8.98;6.28;;;;;;;8.51;30.53;100751.06;668957;29;1536;-79
2022/03/12 01:13:56;;;;;;;8.77;6.20;;;;;;;8.57;30.29;100745.03;668430;29;1518;-79
2022/03/12 01:14:17;;;;;;;10.48;7.00;;;;;;;8.59;30.49;100746.78;669771;29;1458;-79
2022/03/12 01:14:38;;;;;;;10.50;6.83;;;;;;;8.58;30.48;100773.69;673392;29;1324;-79
2022/03/12 01:14:58;;;;;;;10.63;6.53;;;;;;;8.56;30.79;100745.91;673054;29;1910;-78
2022/03/12 01:15:19;;;;;;;9.77;6.30;;;;;;;8.56;30.52;100753.72;672084;29;1654;-79
2022/03/12 01:15:42;;;;;;;9.63;6.40;;;;;;;8.57;30.12;100747.63;677216;29;2574;-78
2022/03/12 01:16:06;;;;;;;9.37;6.83;;;;;;;8.56;30.93;100751.13;674466;29;4351;-79
2022/03/12 01:16:26;;;;;;;8.85;6.38;;;;;;;8.62;30.98;100748.53;672768;29;3892;-79
2022/03/12 01:16:47;;;;;;;9.23;6.67;;;;;;;8.58;30.64;100754.59;675824;29;1727;-79
2022/03/12 01:17:08;;;;;;;9.90;6.55;;;;;;;8.59;31.02;100752.00;676411;29;1831;-79
2022/03/12 01:17:31;;;;;;;9.07;6.10;;;;;;;8.67;30.41;100778.09;675220;29;1410;-79
2022/03/12 01:17:51;;;;;;;9.35;6.43;;;;;;;8.65;30.16;100745.94;673822;29;1787;-79
2022/03/12 01:18:14;;;;;;;9.63;6.83;;;;;;;8.56;31.26;100761.53;672460;29;1167;-79
2022/03/12 01:18:38;;;;;;;11.15;6.47;;;;;;;8.55;31.50;100765.00;672103;29;1832;-78
2022/03/12 01:18:59;;;;;;;10.32;6.40;;;;;;;8.58;30.79;100754.59;666761;29;4297;-79
2022/03/12 01:19:22;;;;;;;11.00;6.70;;;;;;;8.52;31.53;100766.72;670077;29;1676;-79
2022/03/12 01:19:42;;;;;;;9.87;6.63;;;;;;;8.52;31.65;100794.53;669634;29;1263;-78
2022/03/12 01:20:05;;;;;;;9.15;6.40;;;;;;;8.49;31.53;100755.44;670637;29;1186;-79
2022/03/12 01:20:29;;;;;;;9.00;6.22;;;;;;;8.43;31.55;100753.63;670451;29;1620;-78
2022/03/12 01:20:50;;;;;;;9.65;6.55;;;;;;;8.37;31.46;100782.22;671270;29;1606;-79
2022/03/12 01:21:17;;;;;;;10.02;6.60;;;;;;;8.46;30.31;100751.06;674101;29;1504;-78
2022/03/12 01:21:38;;;;;;;10.60;6.72;;;;;;;8.45;31.03;100780.59;678607;29;1782;-79
2022/03/12 01:21:59;;;;;;;9.30;6.50;;;;;;;8.53;30.45;100757.19;675354;29;4327;-79
2022/03/12 01:22:26;;;;;;;9.68;6.30;;;;;;;8.49;30.49;100758.03;673484;29;1806;-78
2022/03/12 01:22:46;;;;;;;9.57;6.55;;;;;;;8.47;30.45;100760.63;672889;29;1057;-79
2022/03/12 01:23:08;;;;;;;8.57;6.50;;;;;;;8.50;30.92;100752.81;670078;29;1383;-79
2022/03/12 01:23:29;;;;;;;9.20;6.22;;;;;;;8.54;31.28;100769.31;676071;29;1413;-79
2022/03/12 01:23:50;;;;;;;9.73;6.45;;;;;;;8.54;30.47;100760.66;675588;29;1190;-79
2022/03/12 01:24:11;;;;;;;9.02;6.68;;;;;;;8.51;31.51;100775.41;673664;29;1490;-79
2022/03/12 01:24:32;;;;;;;9.70;6.82;;;;;;;8.48;31.19;100772.78;672572;29;1521;-79
2022/03/12 01:24:52;;;;;;;10.57;6.93;;;;;;;8.46;31.91;100781.44;671376;29;4371;-78
2022/03/12 01:25:13;;;;;;;10.15;6.35;;;;;;;8.49;31.49;100782.34;672609;29;814;-79
2022/03/12 01:25:34;;;;;;;10.20;6.32;;;;;;;8.58;30.19;100759.81;673191;29;1531;-78
2022/03/12 01:25:54;;;;;;;9.60;6.40;;;;;;;8.48;31.52;100757.16;673144;29;1361;-79
2022/03/12 01:26:17;;;;;;;10.82;6.50;;;;;;;8.44;31.58;100763.16;678604;29;936;-78
2022/03/12 01:26:40;;;;;;;10.55;6.57;;;;;;;8.40;32.07;100776.19;674304;29;1453;-78
2022/03/12 01:27:00;;;;;;;10.63;6.63;;;;;;;8.35;31.99;100757.94;674156;29;1397;-78
2022/03/12 01:27:21;;;;;;;9.90;6.77;;;;;;;8.36;31.24;100759.66;670071;29;1073;-79
2022/03/12 01:27:41;;;;;;;9.70;6.55;;;;;;;8.43;31.24;100758.84;666433;29;1300;-79
2022/03/12 01:28:03;;;;;;;10.03;6.33;;;;;;;8.41;30.93;100757.94;674099;29;5154;-79
2022/03/12 01:28:23;;;;;;;10.35;6.22;;;;;;;8.47;30.60;100758.03;670921;29;981;-80
2022/03/12 01:28:46;;;;;;;11.43;6.67;;;;;;;8.43;31.30;100779.69;669273;29;1000;-79
2022/03/12 01:29:10;;;;;;;10.40;6.70;;;;;;;8.45;31.01;100785.78;673688;29;945;-79
2022/03/12 01:29:31;;;;;;;9.40;6.63;;;;;;;8.42;32.15;100757.09;672613;29;1375;-79
2022/03/12 01:29:51;;;;;;;8.60;6.68;;;;;;;8.36;31.69;100764.84;669069;29;1222;-79
2022/03/12 01:30:12;;;;;;;8.53;6.47;;;;;;;8.35;32.01;100764.00;673175;29;1396;-79
2022/03/12 01:30:32;;;;;;;10.50;6.57;;;;;;;8.32;31.64;100768.31;679413;29;1421;-79
2022/03/12 01:30:54;;;;;;;10.38;6.57;;;;;;;8.30;32.63;100759.63;679181;28;4319;-79
2022/03/12 01:31:16;;;;;;;9.15;6.30;;;;;;;8.29;32.26;100773.50;673523;29;1350;-79
2022/03/12 01:31:37;;;;;;;9.80;6.78;;;;;;;8.38;31.59;100768.34;677732;29;1412;-78
2022/03/12 01:31:57;;;;;;;9.65;6.63;;;;;;;8.38;32.39;100763.16;674200;29;1298;-80
2022/03/12 01:32:18;;;;;;;11.70;6.80;;;;;;;8.41;31.38;100772.72;678811;29;1362;-78
2022/03/12 01:32:39;;;;;;;10.50;6.45;;;;;;;8.43;31.12;100766.66;674102;29;1310;-79
2022/03/12 01:32:59;;;;;;;8.52;6.30;;;;;;;8.50;30.87;100760.63;672913;29;1269;-79
2022/03/12 01:33:20;;;;;;;9.13;6.47;;;;;;;8.51;31.27;100761.50;673343;29;1387;-78
2022/03/12 01:33:41;;;;;;;9.52;6.72;;;;;;;8.46;30.94;100761.50;675337;29;1108;-78
2022/03/12 01:34:03;;;;;;;8.93;6.05;;;;;;;8.48;30.93;100766.72;672265;29;4452;-79
2022/03/12 01:34:25;;;;;;;10.65;6.57;;;;;;;8.51;30.97;100772.81;673365;29;1826;-79
2022/03/12 01:34:47;;;;;;;8.95;6.07;;;;;;;8.44;31.79;100768.38;671880;29;1142;-80
2022/03/12 01:35:07;;;;;;;9.85;6.35;;;;;;;8.44;31.65;100763.16;672208;29;1961;-78
2022/03/12 01:35:28;;;;;;;9.85;6.10;;;;;;;8.47;30.92;100768.44;670215;29;1483;-79
2022/03/12 01:35:49;;;;;;;9.90;6.55;;;;;;;8.43;31.22;100781.41;673257;29;1462;-79
2022/03/12 01:36:10;;;;;;;11.50;6.80;;;;;;;8.44;31.75;100768.38;669509;29;1349;-78
2022/03/12 01:36:31;;;;;;;10.50;6.55;;;;;;;8.40;31.15;100760.53;670077;29;1508;-79
2022/03/12 01:36:52;;;;;;;9.55;6.63;;;;;;;8.37;31.25;100760.53;672614;29;4935;-79
2022/03/12 01:37:19;;;;;;;10.02;6.78;;;;;;;8.40;31.24;100761.41;672088;29;802;-78
2022/03/12 01:37:39;;;;;;;10.50;6.63;;;;;;;8.34;32.46;100767.44;671646;29;1227;-79
2022/03/12 01:38:03;;;;;;;9.80;6.20;;;;;;;8.36;31.42;100764.84;673263;29;1151;-79
2022/03/12 01:38:33;;;;;;;9.05;6.20;;;;;;;8.39;30.88;100766.59;673327;29;1352;-78
2022/03/12 01:38:56;;;;;;;9.50;6.57;;;;;;;8.48;30.86;100762.34;670166;29;4174;-78
2022/03/12 01:39:16;;;;;;;10.38;7.03;;;;;;;8.45;31.03;100764.09;670233;29;1760;-79
2022/03/12 01:39:37;;;;;;;9.10;6.53;;;;;;;8.41;32.09;100775.31;671800;29;1538;-78
2022/03/12 01:40:05;;;;;;;10.18;6.88;;;;;;;8.42;31.70;100783.13;673688;29;4378;-79
2022/03/12 01:40:29;;;;;;;9.45;6.43;;;;;;;8.41;31.24;100770.97;672931;29;992;-79
2022/03/12 01:40:52;;;;;;;9.55;6.50;;;;;;;8.44;31.84;100764.91;670208;29;1350;-79
2022/03/12 01:41:19;;;;;;;9.63;6.47;;;;;;;8.48;30.89;100784.94;669869;29;1258;-79
2022/03/12 01:41:42;;;;;;;9.82;6.50;;;;;;;8.51;30.89;100788.44;671129;29;1239;-79
2022/03/12 01:42:07;;;;;;;10.57;6.70;;;;;;;8.44;31.00;100768.38;673516;29;1292;-79
2022/03/12 01:42:28;;;;;;;10.13;6.68;;;;;;;8.44;30.90;100763.16;672880;29;1561;-79
2022/03/12 01:42:49;;;;;;;8.77;6.47;;;;;;;8.41;31.30;100776.19;674124;29;1095;-78
2022/03/12 01:43:10;;;;;;;9.95;6.82;;;;;;;8.40;31.34;100787.47;666589;29;4870;-78
2022/03/12 01:43:36;;;;;;;9.77;6.45;;;;;;;8.42;31.91;100759.69;669663;29;1445;-79
2022/03/12 01:43:59;;;;;;;9.38;6.55;;;;;;;8.47;30.89;100759.75;672684;29;1404;-78
2022/03/12 01:44:21;;;;;;;10.32;6.75;;;;;;;8.44;31.01;100788.34;671052;29;1148;-79
2022/03/12 01:44:44;;;;;;;9.10;6.38;;;;;;;8.45;31.22;100780.59;670847;29;1576;-78
2022/03/12 01:45:09;;;;;;;9.07;6.43;;;;;;;8.41;31.36;100778.78;669309;29;1079;-79
2022/03/12 01:45:29;;;;;;;9.20;6.22;;;;;;;8.44;30.77;100773.59;670931;29;1667;-79